sensor_id;sensor_type;location;lat;lon;timestamp;P1;durP1;ratioP1;P2;durP2;ratioP2
74044;SDS011;62389;51.412;5.436;2022-10-16T00:00:38;5.00;;;2.60;;
74044;SDS011;62389;51.412;5.436;2022-10-16T00:03:05;6.43;;;3.55;;
74044;SDS011;62389;51.412;5.436;2022-10-16T00:05:32;6.55;;;2.78;;
74044;SDS011;62389;51.412;5.436;2022-10-16T00:08:02;4.88;;;3.00;;
74044;SDS011;62389;51.412;5.436;2022-10-16T00:10:27;4.32;;;2.35;;
74044;SDS011;62389;51.412;5.436;2022-10-16T00:12:53;5.95;;;2.47;;
74044;SDS011;62389;51.412;5.436;2022-10-16T00:15:19;4.57;;;2.55;;
74044;SDS011;62389;51.412;5.436;2022-10-16T00:17:44;5.00;;;1.98;;
74044;SDS011;62389;51.412;5.436;2022-10-16T00:20:09;5.68;;;2.53;;
74044;SDS011;62389;51.412;5.436;2022-10-16T00:22:35;3.70;;;2.60;;
74044;SDS011;62389;51.412;5.436;2022-10-16T00:25:00;3.33;;;2.17;;
74044;SDS011;62389;51.412;5.436;2022-10-16T00:27:25;6.28;;;2.30;;
74044;SDS011;62389;51.412;5.436;2022-10-16T00:29:51;8.88;;;3.13;;
74044;SDS011;62389;51.412;5.436;2022-10-16T00:32:18;4.80;;;2.22;;
74044;SDS011;62389;51.412;5.436;2022-10-16T00:34:44;5.45;;;2.08;;
74044;SDS011;62389;51.412;5.436;2022-10-16T00:37:10;4.85;;;2.30;;
74044;SDS011;62389;51.412;5.436;2022-10-16T00:39:36;3.10;;;2.05;;
74044;SDS011;62389;51.412;5.436;2022-10-16T00:42:01;4.38;;;2.17;;
74044;SDS011;62389;51.412;5.436;2022-10-16T00:44:46;4.47;;;1.90;;
74044;SDS011;62389;51.412;5.436;2022-10-16T00:47:34;5.53;;;2.63;;
74044;SDS011;62389;51.412;5.436;2022-10-16T00:50:08;3.13;;;1.90;;
74044;SDS011;62389;51.412;5.436;2022-10-16T00:52:36;3.78;;;2.20;;
74044;SDS011;62389;51.412;5.436;2022-10-16T00:55:06;9.77;;;3.30;;
74044;SDS011;62389;51.412;5.436;2022-10-16T00:57:34;4.35;;;2.17;;
74044;SDS011;62389;51.412;5.436;2022-10-16T00:59:59;6.32;;;2.15;;
74044;SDS011;62389;51.412;5.436;2022-10-16T01:02:24;4.32;;;1.88;;
74044;SDS011;62389;51.412;5.436;2022-10-16T01:04:50;4.18;;;1.80;;
74044;SDS011;62389;51.412;5.436;2022-10-16T01:13:05;3.55;;;2.00;;
74044;SDS011;62389;51.412;5.436;2022-10-16T01:21:13;5.07;;;2.08;;
74044;SDS011;62389;51.412;5.436;2022-10-16T01:29:21;5.22;;;2.00;;
74044;SDS011;62389;51.412;5.436;2022-10-16T01:31:54;3.65;;;1.90;;
74044;SDS011;62389;51.412;5.436;2022-10-16T01:37:18;4.32;;;1.83;;
74044;SDS011;62389;51.412;5.436;2022-10-16T01:39:52;3.33;;;1.98;;
74044;SDS011;62389;51.412;5.436;2022-10-16T01:42:24;4.32;;;1.88;;
74044;SDS011;62389;51.412;5.436;2022-10-16T01:44:55;3.50;;;1.98;;
74044;SDS011;62389;51.412;5.436;2022-10-16T01:47:22;4.90;;;1.95;;
74044;SDS011;62389;51.412;5.436;2022-10-16T01:49:50;3.92;;;1.90;;
74044;SDS011;62389;51.412;5.436;2022-10-16T01:52:19;4.22;;;2.13;;
74044;SDS011;62389;51.412;5.436;2022-10-16T01:54:49;5.38;;;2.00;;
74044;SDS011;62389;51.412;5.436;2022-10-16T01:57:18;3.28;;;1.67;;
74044;SDS011;62389;51.412;5.436;2022-10-16T01:59:47;3.65;;;1.55;;
74044;SDS011;62389;51.412;5.436;2022-10-16T02:02:17;4.22;;;1.60;;
74044;SDS011;62389;51.412;5.436;2022-10-16T02:07:12;3.15;;;1.80;;
74044;SDS011;62389;51.412;5.436;2022-10-16T02:09:38;3.05;;;1.60;;
74044;SDS011;62389;51.412;5.436;2022-10-16T02:12:14;3.72;;;1.60;;
74044;SDS011;62389;51.412;5.436;2022-10-16T02:14:44;3.28;;;1.90;;
74044;SDS011;62389;51.412;5.436;2022-10-16T02:17:11;2.78;;;1.50;;
74044;SDS011;62389;51.412;5.436;2022-10-16T02:19:41;3.45;;;1.58;;
74044;SDS011;62389;51.412;5.436;2022-10-16T02:22:08;3.30;;;1.77;;
74044;SDS011;62389;51.412;5.436;2022-10-16T02:24:49;5.88;;;1.60;;
74044;SDS011;62389;51.412;5.436;2022-10-16T02:27:23;2.20;;;1.52;;
74044;SDS011;62389;51.412;5.436;2022-10-16T02:30:42;3.20;;;1.67;;
74044;SDS011;62389;51.412;5.436;2022-10-16T02:32:52;3.45;;;1.67;;
74044;SDS011;62389;51.412;5.436;2022-10-16T02:35:20;5.82;;;1.60;;
74044;SDS011;62389;51.412;5.436;2022-10-16T02:37:47;2.42;;;1.42;;
74044;SDS011;62389;51.412;5.436;2022-10-16T02:40:15;3.58;;;1.45;;
74044;SDS011;62389;51.412;5.436;2022-10-16T02:42:41;3.20;;;1.48;;
74044;SDS011;62389;51.412;5.436;2022-10-16T02:45:07;4.10;;;1.80;;
74044;SDS011;62389;51.412;5.436;2022-10-16T02:47:35;2.08;;;1.33;;
74044;SDS011;62389;51.412;5.436;2022-10-16T02:50:00;2.45;;;1.63;;
74044;SDS011;62389;51.412;5.436;2022-10-16T02:52:25;3.58;;;1.70;;
74044;SDS011;62389;51.412;5.436;2022-10-16T02:54:51;4.85;;;2.10;;
74044;SDS011;62389;51.412;5.436;2022-10-16T02:57:16;3.50;;;1.80;;
74044;SDS011;62389;51.412;5.436;2022-10-16T02:59:43;3.85;;;1.63;;
74044;SDS011;62389;51.412;5.436;2022-10-16T03:02:08;2.60;;;1.40;;
74044;SDS011;62389;51.412;5.436;2022-10-16T03:04:34;3.10;;;1.63;;
74044;SDS011;62389;51.412;5.436;2022-10-16T03:06:59;2.63;;;1.52;;
74044;SDS011;62389;51.412;5.436;2022-10-16T03:09:25;2.15;;;1.42;;
74044;SDS011;62389;51.412;5.436;2022-10-16T03:11:50;3.92;;;1.70;;
74044;SDS011;62389;51.412;5.436;2022-10-16T03:14:15;3.85;;;1.70;;
74044;SDS011;62389;51.412;5.436;2022-10-16T03:16:41;2.08;;;1.35;;
74044;SDS011;62389;51.412;5.436;2022-10-16T03:19:06;3.97;;;1.52;;
74044;SDS011;62389;51.412;5.436;2022-10-16T03:21:31;3.85;;;2.17;;
74044;SDS011;62389;51.412;5.436;2022-10-16T03:23:57;4.82;;;1.70;;
74044;SDS011;62389;51.412;5.436;2022-10-16T03:26:22;3.30;;;1.58;;
74044;SDS011;62389;51.412;5.436;2022-10-16T03:28:47;5.28;;;1.65;;
74044;SDS011;62389;51.412;5.436;2022-10-16T03:31:13;2.72;;;1.70;;
74044;SDS011;62389;51.412;5.436;2022-10-16T03:33:38;3.47;;;1.50;;
74044;SDS011;62389;51.412;5.436;2022-10-16T03:36:03;4.47;;;1.73;;
74044;SDS011;62389;51.412;5.436;2022-10-16T03:38:29;3.08;;;1.40;;
74044;SDS011;62389;51.412;5.436;2022-10-16T03:40:54;2.22;;;1.27;;
74044;SDS011;62389;51.412;5.436;2022-10-16T03:43:20;6.13;;;1.50;;
74044;SDS011;62389;51.412;5.436;2022-10-16T03:45:45;2.95;;;1.50;;
74044;SDS011;62389;51.412;5.436;2022-10-16T03:48:10;3.40;;;1.60;;
74044;SDS011;62389;51.412;5.436;2022-10-16T03:50:36;5.63;;;1.60;;
74044;SDS011;62389;51.412;5.436;2022-10-16T03:53:01;4.45;;;1.40;;
74044;SDS011;62389;51.412;5.436;2022-10-16T03:55:27;2.47;;;1.40;;
74044;SDS011;62389;51.412;5.436;2022-10-16T03:57:52;3.85;;;1.58;;
74044;SDS011;62389;51.412;5.436;2022-10-16T04:00:17;3.83;;;1.45;;
74044;SDS011;62389;51.412;5.436;2022-10-16T04:02:43;4.07;;;1.67;;
74044;SDS011;62389;51.412;5.436;2022-10-16T04:05:08;4.38;;;1.60;;
74044;SDS011;62389;51.412;5.436;2022-10-16T04:07:34;5.20;;;1.63;;
74044;SDS011;62389;51.412;5.436;2022-10-16T04:09:59;2.45;;;1.70;;
74044;SDS011;62389;51.412;5.436;2022-10-16T04:12:25;2.92;;;1.70;;
74044;SDS011;62389;51.412;5.436;2022-10-16T04:14:51;3.75;;;1.80;;
74044;SDS011;62389;51.412;5.436;2022-10-16T04:17:16;2.60;;;1.73;;
74044;SDS011;62389;51.412;5.436;2022-10-16T04:19:41;4.25;;;1.80;;
74044;SDS011;62389;51.412;5.436;2022-10-16T04:22:07;4.55;;;1.65;;
74044;SDS011;62389;51.412;5.436;2022-10-16T04:24:32;5.28;;;1.67;;
74044;SDS011;62389;51.412;5.436;2022-10-16T04:26:58;4.07;;;1.85;;
74044;SDS011;62389;51.412;5.436;2022-10-16T04:29:23;2.50;;;1.48;;
74044;SDS011;62389;51.412;5.436;2022-10-16T04:31:48;3.03;;;1.73;;
74044;SDS011;62389;51.412;5.436;2022-10-16T04:34:14;3.25;;;1.73;;
74044;SDS011;62389;51.412;5.436;2022-10-16T04:36:39;5.35;;;2.30;;
74044;SDS011;62389;51.412;5.436;2022-10-16T04:39:04;4.07;;;1.73;;
74044;SDS011;62389;51.412;5.436;2022-10-16T04:41:30;4.75;;;1.90;;
74044;SDS011;62389;51.412;5.436;2022-10-16T04:43:55;5.25;;;2.05;;
74044;SDS011;62389;51.412;5.436;2022-10-16T04:46:20;6.45;;;2.20;;
74044;SDS011;62389;51.412;5.436;2022-10-16T04:48:45;4.03;;;1.95;;
74044;SDS011;62389;51.412;5.436;2022-10-16T04:51:11;2.92;;;1.60;;
74044;SDS011;62389;51.412;5.436;2022-10-16T04:53:37;4.60;;;1.77;;
74044;SDS011;62389;51.412;5.436;2022-10-16T04:56:02;5.68;;;2.10;;
74044;SDS011;62389;51.412;5.436;2022-10-16T04:58:28;3.53;;;1.80;;
74044;SDS011;62389;51.412;5.436;2022-10-16T05:00:53;4.32;;;1.88;;
74044;SDS011;62389;51.412;5.436;2022-10-16T05:03:19;4.30;;;2.33;;
74044;SDS011;62389;51.412;5.436;2022-10-16T05:05:44;5.82;;;1.85;;
74044;SDS011;62389;51.412;5.436;2022-10-16T05:08:11;4.05;;;1.58;;
74044;SDS011;62389;51.412;5.436;2022-10-16T05:10:38;6.28;;;1.80;;
74044;SDS011;62389;51.412;5.436;2022-10-16T05:13:03;3.13;;;1.67;;
74044;SDS011;62389;51.412;5.436;2022-10-16T05:15:28;3.95;;;1.77;;
74044;SDS011;62389;51.412;5.436;2022-10-16T05:17:54;3.20;;;2.08;;
74044;SDS011;62389;51.412;5.436;2022-10-16T05:20:20;3.75;;;1.90;;
74044;SDS011;62389;51.412;5.436;2022-10-16T05:22:47;3.30;;;1.40;;
74044;SDS011;62389;51.412;5.436;2022-10-16T05:25:12;2.55;;;1.45;;
74044;SDS011;62389;51.412;5.436;2022-10-16T05:27:38;2.85;;;1.67;;
74044;SDS011;62389;51.412;5.436;2022-10-16T05:30:03;3.85;;;1.85;;
74044;SDS011;62389;51.412;5.436;2022-10-16T05:32:29;6.32;;;2.47;;
74044;SDS011;62389;51.412;5.436;2022-10-16T05:34:54;4.88;;;1.85;;
74044;SDS011;62389;51.412;5.436;2022-10-16T05:37:19;4.05;;;1.90;;
74044;SDS011;62389;51.412;5.436;2022-10-16T05:39:45;4.78;;;1.95;;
74044;SDS011;62389;51.412;5.436;2022-10-16T05:42:10;3.88;;;2.10;;
74044;SDS011;62389;51.412;5.436;2022-10-16T05:44:35;4.18;;;1.63;;
74044;SDS011;62389;51.412;5.436;2022-10-16T05:47:01;4.25;;;1.80;;
74044;SDS011;62389;51.412;5.436;2022-10-16T05:49:26;6.03;;;2.13;;
74044;SDS011;62389;51.412;5.436;2022-10-16T05:51:51;5.45;;;2.13;;
74044;SDS011;62389;51.412;5.436;2022-10-16T05:54:17;5.60;;;2.08;;
74044;SDS011;62389;51.412;5.436;2022-10-16T05:56:42;4.63;;;2.10;;
74044;SDS011;62389;51.412;5.436;2022-10-16T05:59:08;4.65;;;1.80;;
74044;SDS011;62389;51.412;5.436;2022-10-16T06:01:33;3.95;;;1.75;;
74044;SDS011;62389;51.412;5.436;2022-10-16T06:04:00;6.18;;;1.92;;
74044;SDS011;62389;51.412;5.436;2022-10-16T06:06:27;2.80;;;1.70;;
74044;SDS011;62389;51.412;5.436;2022-10-16T06:11:20;5.53;;;2.28;;
74044;SDS011;62389;51.412;5.436;2022-10-16T06:13:51;7.45;;;2.50;;
74044;SDS011;62389;51.412;5.436;2022-10-16T06:16:17;4.20;;;2.25;;
74044;SDS011;62389;51.412;5.436;2022-10-16T06:18:43;5.82;;;2.30;;
74044;SDS011;62389;51.412;5.436;2022-10-16T06:21:12;4.72;;;2.38;;
74044;SDS011;62389;51.412;5.436;2022-10-16T06:23:40;4.72;;;2.03;;
74044;SDS011;62389;51.412;5.436;2022-10-16T06:26:07;5.15;;;2.45;;
74044;SDS011;62389;51.412;5.436;2022-10-16T06:28:34;5.93;;;2.55;;
74044;SDS011;62389;51.412;5.436;2022-10-16T06:31:00;5.38;;;2.30;;
74044;SDS011;62389;51.412;5.436;2022-10-16T06:33:26;5.57;;;2.63;;
74044;SDS011;62389;51.412;5.436;2022-10-16T06:35:51;5.47;;;2.40;;
74044;SDS011;62389;51.412;5.436;2022-10-16T06:38:17;3.88;;;2.42;;
74044;SDS011;62389;51.412;5.436;2022-10-16T06:40:42;3.55;;;2.13;;
74044;SDS011;62389;51.412;5.436;2022-10-16T06:43:07;5.28;;;2.55;;
74044;SDS011;62389;51.412;5.436;2022-10-16T06:45:33;6.30;;;3.00;;
74044;SDS011;62389;51.412;5.436;2022-10-16T06:47:58;4.97;;;2.65;;
74044;SDS011;62389;51.412;5.436;2022-10-16T06:50:23;5.50;;;3.22;;
74044;SDS011;62389;51.412;5.436;2022-10-16T06:52:49;6.20;;;3.00;;
74044;SDS011;62389;51.412;5.436;2022-10-16T06:55:14;5.07;;;2.78;;
74044;SDS011;62389;51.412;5.436;2022-10-16T06:57:41;5.90;;;2.90;;
74044;SDS011;62389;51.412;5.436;2022-10-16T07:00:07;9.73;;;2.67;;
74044;SDS011;62389;51.412;5.436;2022-10-16T07:02:33;4.10;;;2.60;;
74044;SDS011;62389;51.412;5.436;2022-10-16T07:04:58;5.95;;;2.80;;
74044;SDS011;62389;51.412;5.436;2022-10-16T07:07:23;6.38;;;2.88;;
74044;SDS011;62389;51.412;5.436;2022-10-16T07:09:49;4.20;;;2.20;;
74044;SDS011;62389;51.412;5.436;2022-10-16T07:12:15;5.10;;;2.75;;
74044;SDS011;62389;51.412;5.436;2022-10-16T07:14:40;5.18;;;2.65;;
74044;SDS011;62389;51.412;5.436;2022-10-16T07:17:05;5.25;;;2.70;;
74044;SDS011;62389;51.412;5.436;2022-10-16T07:19:31;5.78;;;2.70;;
74044;SDS011;62389;51.412;5.436;2022-10-16T07:21:56;6.80;;;2.67;;
74044;SDS011;62389;51.412;5.436;2022-10-16T07:24:22;6.07;;;3.20;;
74044;SDS011;62389;51.412;5.436;2022-10-16T07:26:47;6.40;;;3.00;;
74044;SDS011;62389;51.412;5.436;2022-10-16T07:29:14;6.63;;;2.60;;
74044;SDS011;62389;51.412;5.436;2022-10-16T07:31:41;4.78;;;2.15;;
74044;SDS011;62389;51.412;5.436;2022-10-16T07:34:08;5.65;;;2.00;;
74044;SDS011;62389;51.412;5.436;2022-10-16T07:36:34;3.80;;;1.70;;
74044;SDS011;62389;51.412;5.436;2022-10-16T07:38:59;5.95;;;1.60;;
74044;SDS011;62389;51.412;5.436;2022-10-16T07:41:25;5.30;;;1.58;;
74044;SDS011;62389;51.412;5.436;2022-10-16T07:43:51;4.63;;;1.60;;
74044;SDS011;62389;51.412;5.436;2022-10-16T07:46:18;3.22;;;1.50;;
74044;SDS011;62389;51.412;5.436;2022-10-16T07:48:44;2.60;;;1.23;;
74044;SDS011;62389;51.412;5.436;2022-10-16T07:51:12;4.05;;;1.50;;
74044;SDS011;62389;51.412;5.436;2022-10-16T07:53:42;3.50;;;1.40;;
74044;SDS011;62389;51.412;5.436;2022-10-16T07:56:08;6.10;;;1.40;;
74044;SDS011;62389;51.412;5.436;2022-10-16T07:58:34;6.47;;;1.75;;
74044;SDS011;62389;51.412;5.436;2022-10-16T08:01:03;3.42;;;1.58;;
74044;SDS011;62389;51.412;5.436;2022-10-16T08:03:30;4.25;;;1.42;;
74044;SDS011;62389;51.412;5.436;2022-10-16T08:05:56;4.53;;;1.33;;
74044;SDS011;62389;51.412;5.436;2022-10-16T08:08:22;4.13;;;1.50;;
74044;SDS011;62389;51.412;5.436;2022-10-16T08:10:47;4.47;;;1.27;;
74044;SDS011;62389;51.412;5.436;2022-10-16T08:13:13;2.17;;;1.13;;
74044;SDS011;62389;51.412;5.436;2022-10-16T08:18:05;3.22;;;1.10;;
74044;SDS011;62389;51.412;5.436;2022-10-16T08:20:31;3.20;;;1.40;;
74044;SDS011;62389;51.412;5.436;2022-10-16T08:22:58;2.33;;;1.23;;
74044;SDS011;62389;51.412;5.436;2022-10-16T08:25:24;2.20;;;0.95;;
74044;SDS011;62389;51.412;5.436;2022-10-16T08:27:50;2.10;;;1.00;;
74044;SDS011;62389;51.412;5.436;2022-10-16T08:30:16;2.65;;;1.15;;
74044;SDS011;62389;51.412;5.436;2022-10-16T08:32:43;3.25;;;1.30;;
74044;SDS011;62389;51.412;5.436;2022-10-16T08:35:09;3.33;;;1.10;;
74044;SDS011;62389;51.412;5.436;2022-10-16T08:37:35;4.22;;;1.10;;
74044;SDS011;62389;51.412;5.436;2022-10-16T08:40:01;2.83;;;1.10;;
74044;SDS011;62389;51.412;5.436;2022-10-16T08:42:31;2.17;;;1.15;;
74044;SDS011;62389;51.412;5.436;2022-10-16T08:48:02;3.80;;;1.00;;
74044;SDS011;62389;51.412;5.436;2022-10-16T08:51:02;2.33;;;1.20;;
74044;SDS011;62389;51.412;5.436;2022-10-16T08:56:19;3.58;;;1.08;;
74044;SDS011;62389;51.412;5.436;2022-10-16T08:58:45;3.15;;;1.00;;
74044;SDS011;62389;51.412;5.436;2022-10-16T09:01:13;3.67;;;1.45;;
74044;SDS011;62389;51.412;5.436;2022-10-16T09:06:50;1.45;;;0.90;;
74044;SDS011;62389;51.412;5.436;2022-10-16T09:10:06;3.40;;;0.93;;
74044;SDS011;62389;51.412;5.436;2022-10-16T09:12:40;2.53;;;0.90;;
74044;SDS011;62389;51.412;5.436;2022-10-16T09:15:20;4.00;;;1.23;;
74044;SDS011;62389;51.412;5.436;2022-10-16T09:23:49;4.40;;;1.08;;
74044;SDS011;62389;51.412;5.436;2022-10-16T09:26:15;2.25;;;1.27;;
74044;SDS011;62389;51.412;5.436;2022-10-16T09:28:43;4.97;;;1.27;;
74044;SDS011;62389;51.412;5.436;2022-10-16T09:31:18;3.17;;;1.10;;
74044;SDS011;62389;51.412;5.436;2022-10-16T09:33:48;3.35;;;1.10;;
74044;SDS011;62389;51.412;5.436;2022-10-16T09:36:25;2.72;;;1.10;;
74044;SDS011;62389;51.412;5.436;2022-10-16T09:39:06;3.35;;;1.10;;
74044;SDS011;62389;51.412;5.436;2022-10-16T09:41:36;2.58;;;0.95;;
74044;SDS011;62389;51.412;5.436;2022-10-16T09:44:05;3.45;;;1.20;;
74044;SDS011;62389;51.412;5.436;2022-10-16T09:46:43;4.97;;;1.88;;
74044;SDS011;62389;51.412;5.436;2022-10-16T09:49:21;4.18;;;1.10;;
74044;SDS011;62389;51.412;5.436;2022-10-16T09:51:48;4.10;;;1.42;;
74044;SDS011;62389;51.412;5.436;2022-10-16T09:54:16;4.97;;;1.40;;
74044;SDS011;62389;51.412;5.436;2022-10-16T09:56:43;4.85;;;1.20;;
74044;SDS011;62389;51.412;5.436;2022-10-16T09:59:18;2.92;;;1.00;;
74044;SDS011;62389;51.412;5.436;2022-10-16T10:01:45;4.30;;;1.02;;
74044;SDS011;62389;51.412;5.436;2022-10-16T10:04:12;4.78;;;2.00;;
74044;SDS011;62389;51.412;5.436;2022-10-16T10:09:16;3.30;;;1.08;;
74044;SDS011;62389;51.412;5.436;2022-10-16T10:14:29;3.20;;;1.10;;
74044;SDS011;62389;51.412;5.436;2022-10-16T10:17:07;5.18;;;1.00;;
74044;SDS011;62389;51.412;5.436;2022-10-16T10:19:40;4.60;;;1.15;;
74044;SDS011;62389;51.412;5.436;2022-10-16T10:27:30;7.10;;;1.20;;
74044;SDS011;62389;51.412;5.436;2022-10-16T10:35:39;3.55;;;1.10;;
74044;SDS011;62389;51.412;5.436;2022-10-16T10:40:43;3.72;;;1.20;;
74044;SDS011;62389;51.412;5.436;2022-10-16T10:46:09;8.25;;;1.65;;
74044;SDS011;62389;51.412;5.436;2022-10-16T10:51:28;2.88;;;1.02;;
74044;SDS011;62389;51.412;5.436;2022-10-16T11:07:49;7.22;;;1.60;;
74044;SDS011;62389;51.412;5.436;2022-10-16T11:10:24;2.67;;;1.13;;
74044;SDS011;62389;51.412;5.436;2022-10-16T11:12:58;6.95;;;1.23;;
74044;SDS011;62389;51.412;5.436;2022-10-16T11:15:36;8.82;;;1.27;;
74044;SDS011;62389;51.412;5.436;2022-10-16T11:18:07;5.35;;;1.10;;
74044;SDS011;62389;51.412;5.436;2022-10-16T11:20:45;3.90;;;1.35;;
74044;SDS011;62389;51.412;5.436;2022-10-16T11:26:21;6.80;;;1.23;;
74044;SDS011;62389;51.412;5.436;2022-10-16T11:28:55;6.45;;;1.40;;
74044;SDS011;62389;51.412;5.436;2022-10-16T11:31:32;7.13;;;0.90;;
74044;SDS011;62389;51.412;5.436;2022-10-16T11:34:07;4.85;;;1.20;;
74044;SDS011;62389;51.412;5.436;2022-10-16T11:39:20;5.30;;;1.20;;
74044;SDS011;62389;51.412;5.436;2022-10-16T11:44:38;7.45;;;1.40;;
74044;SDS011;62389;51.412;5.436;2022-10-16T11:49:37;4.20;;;1.30;;
74044;SDS011;62389;51.412;5.436;2022-10-16T11:52:07;9.05;;;1.33;;
74044;SDS011;62389;51.412;5.436;2022-10-16T12:00:39;5.55;;;1.17;;
74044;SDS011;62389;51.412;5.436;2022-10-16T12:08:34;4.90;;;1.48;;
74044;SDS011;62389;51.412;5.436;2022-10-16T12:11:07;5.25;;;1.20;;
74044;SDS011;62389;51.412;5.436;2022-10-16T12:13:45;7.47;;;1.35;;
74044;SDS011;62389;51.412;5.436;2022-10-16T12:18:38;3.08;;;1.25;;
74044;SDS011;62389;51.412;5.436;2022-10-16T12:21:05;5.07;;;0.98;;
74044;SDS011;62389;51.412;5.436;2022-10-16T12:26:11;3.38;;;0.98;;
74044;SDS011;62389;51.412;5.436;2022-10-16T12:28:36;4.00;;;1.00;;
74044;SDS011;62389;51.412;5.436;2022-10-16T12:31:07;4.18;;;1.10;;
74044;SDS011;62389;51.412;5.436;2022-10-16T12:33:40;5.38;;;0.90;;
74044;SDS011;62389;51.412;5.436;2022-10-16T12:36:15;3.78;;;1.45;;
74044;SDS011;62389;51.412;5.436;2022-10-16T12:38:51;4.32;;;1.00;;
74044;SDS011;62389;51.412;5.436;2022-10-16T12:41:29;4.03;;;0.70;;
74044;SDS011;62389;51.412;5.436;2022-10-16T12:44:04;5.20;;;1.33;;
74044;SDS011;62389;51.412;5.436;2022-10-16T12:49:56;3.80;;;1.10;;
74044;SDS011;62389;51.412;5.436;2022-10-16T12:51:53;3.75;;;0.95;;
74044;SDS011;62389;51.412;5.436;2022-10-16T12:54:27;5.38;;;1.08;;
74044;SDS011;62389;51.412;5.436;2022-10-16T13:05:25;4.60;;;1.02;;
74044;SDS011;62389;51.412;5.436;2022-10-16T13:17:00;5.25;;;1.17;;
74044;SDS011;62389;51.412;5.436;2022-10-16T13:27:56;3.60;;;0.77;;
74044;SDS011;62389;51.412;5.436;2022-10-16T13:30:25;3.50;;;0.82;;
74044;SDS011;62389;51.412;5.436;2022-10-16T13:32:59;2.78;;;0.90;;
74044;SDS011;62389;51.412;5.436;2022-10-16T13:35:28;4.40;;;1.27;;
74044;SDS011;62389;51.412;5.436;2022-10-16T13:38:16;4.25;;;0.90;;
74044;SDS011;62389;51.412;5.436;2022-10-16T13:43:35;5.43;;;1.35;;
74044;SDS011;62389;51.412;5.436;2022-10-16T13:46:16;4.32;;;1.08;;
74044;SDS011;62389;51.412;5.436;2022-10-16T13:48:58;3.03;;;0.93;;
74044;SDS011;62389;51.412;5.436;2022-10-16T13:51:25;3.45;;;0.93;;
74044;SDS011;62389;51.412;5.436;2022-10-16T13:53:51;4.05;;;0.90;;
74044;SDS011;62389;51.412;5.436;2022-10-16T13:56:18;3.72;;;0.75;;
74044;SDS011;62389;51.412;5.436;2022-10-16T13:58:45;2.72;;;1.00;;
74044;SDS011;62389;51.412;5.436;2022-10-16T14:01:18;2.63;;;0.90;;
74044;SDS011;62389;51.412;5.436;2022-10-16T14:03:48;4.13;;;0.90;;
74044;SDS011;62389;51.412;5.436;2022-10-16T14:06:15;2.67;;;0.80;;
74044;SDS011;62389;51.412;5.436;2022-10-16T14:08:45;2.38;;;1.00;;
74044;SDS011;62389;51.412;5.436;2022-10-16T14:11:19;2.53;;;0.90;;
74044;SDS011;62389;51.412;5.436;2022-10-16T14:13:46;4.30;;;0.90;;
74044;SDS011;62389;51.412;5.436;2022-10-16T14:16:16;5.28;;;0.90;;
74044;SDS011;62389;51.412;5.436;2022-10-16T14:18:51;5.30;;;1.05;;
74044;SDS011;62389;51.412;5.436;2022-10-16T14:21:22;4.97;;;0.90;;
74044;SDS011;62389;51.412;5.436;2022-10-16T14:23:49;4.43;;;1.05;;
74044;SDS011;62389;51.412;5.436;2022-10-16T14:26:16;3.33;;;1.10;;
74044;SDS011;62389;51.412;5.436;2022-10-16T14:28:44;4.82;;;1.00;;
74044;SDS011;62389;51.412;5.436;2022-10-16T14:31:23;5.07;;;1.10;;
74044;SDS011;62389;51.412;5.436;2022-10-16T14:33:55;7.90;;;1.25;;
74044;SDS011;62389;51.412;5.436;2022-10-16T14:36:21;5.60;;;1.15;;
74044;SDS011;62389;51.412;5.436;2022-10-16T14:38:48;4.93;;;1.50;;
74044;SDS011;62389;51.412;5.436;2022-10-16T14:41:21;6.20;;;1.80;;
74044;SDS011;62389;51.412;5.436;2022-10-16T14:43:51;4.22;;;1.33;;
74044;SDS011;62389;51.412;5.436;2022-10-16T14:46:21;3.72;;;1.60;;
74044;SDS011;62389;51.412;5.436;2022-10-16T14:48:56;4.63;;;1.58;;
74044;SDS011;62389;51.412;5.436;2022-10-16T14:51:45;3.85;;;1.35;;
74044;SDS011;62389;51.412;5.436;2022-10-16T14:54:11;3.65;;;1.25;;
74044;SDS011;62389;51.412;5.436;2022-10-16T14:59:16;10.40;;;1.25;;
74044;SDS011;62389;51.412;5.436;2022-10-16T15:01:46;3.03;;;1.10;;
74044;SDS011;62389;51.412;5.436;2022-10-16T15:04:13;4.50;;;1.02;;
74044;SDS011;62389;51.412;5.436;2022-10-16T15:09:04;5.40;;;0.93;;
74044;SDS011;62389;51.412;5.436;2022-10-16T15:11:29;2.67;;;1.00;;
74044;SDS011;62389;51.412;5.436;2022-10-16T15:13:57;3.45;;;1.02;;
74044;SDS011;62389;51.412;5.436;2022-10-16T15:16:22;2.40;;;1.02;;
74044;SDS011;62389;51.412;5.436;2022-10-16T15:18:48;2.25;;;0.80;;
74044;SDS011;62389;51.412;5.436;2022-10-16T15:21:18;3.63;;;0.80;;
74044;SDS011;62389;51.412;5.436;2022-10-16T15:23:55;2.85;;;0.90;;
74044;SDS011;62389;51.412;5.436;2022-10-16T15:26:22;3.80;;;1.10;;
74044;SDS011;62389;51.412;5.436;2022-10-16T15:28:49;3.50;;;1.00;;
74044;SDS011;62389;51.412;5.436;2022-10-16T15:31:15;6.03;;;1.00;;
74044;SDS011;62389;51.412;5.436;2022-10-16T15:33:40;36.78;;;3.92;;
74044;SDS011;62389;51.412;5.436;2022-10-16T15:36:06;4.50;;;1.10;;
74044;SDS011;62389;51.412;5.436;2022-10-16T15:38:31;4.63;;;1.10;;
74044;SDS011;62389;51.412;5.436;2022-10-16T15:40:57;6.63;;;0.95;;
74044;SDS011;62389;51.412;5.436;2022-10-16T15:43:23;7.00;;;1.30;;
74044;SDS011;62389;51.412;5.436;2022-10-16T15:46:22;4.40;;;1.30;;
74044;SDS011;62389;51.412;5.436;2022-10-16T15:48:40;4.97;;;0.98;;
74044;SDS011;62389;51.412;5.436;2022-10-16T15:51:06;2.78;;;0.70;;
74044;SDS011;62389;51.412;5.436;2022-10-16T15:53:32;3.65;;;0.90;;
74044;SDS011;62389;51.412;5.436;2022-10-16T15:56:01;4.68;;;0.82;;
74044;SDS011;62389;51.412;5.436;2022-10-16T15:58:27;3.97;;;0.90;;
74044;SDS011;62389;51.412;5.436;2022-10-16T16:00:56;2.35;;;1.05;;
74044;SDS011;62389;51.412;5.436;2022-10-16T16:03:23;4.18;;;1.48;;
74044;SDS011;62389;51.412;5.436;2022-10-16T16:05:48;5.00;;;1.88;;
74044;SDS011;62389;51.412;5.436;2022-10-16T16:08:14;4.00;;;1.30;;
74044;SDS011;62389;51.412;5.436;2022-10-16T16:10:39;4.35;;;1.30;;
74044;SDS011;62389;51.412;5.436;2022-10-16T16:13:05;7.22;;;1.60;;
74044;SDS011;62389;51.412;5.436;2022-10-16T16:15:30;3.40;;;1.48;;
74044;SDS011;62389;51.412;5.436;2022-10-16T16:17:55;4.95;;;1.33;;
74044;SDS011;62389;51.412;5.436;2022-10-16T16:20:21;5.57;;;1.10;;
74044;SDS011;62389;51.412;5.436;2022-10-16T16:22:46;3.67;;;1.30;;
74044;SDS011;62389;51.412;5.436;2022-10-16T16:25:12;5.07;;;1.20;;
74044;SDS011;62389;51.412;5.436;2022-10-16T16:27:37;3.45;;;1.13;;
74044;SDS011;62389;51.412;5.436;2022-10-16T16:30:04;3.25;;;1.00;;
74044;SDS011;62389;51.412;5.436;2022-10-16T16:32:34;5.32;;;1.13;;
74044;SDS011;62389;51.412;5.436;2022-10-16T16:35:00;5.43;;;1.33;;
74044;SDS011;62389;51.412;5.436;2022-10-16T16:37:27;3.90;;;1.42;;
74044;SDS011;62389;51.412;5.436;2022-10-16T16:39:52;4.40;;;1.63;;
74044;SDS011;62389;51.412;5.436;2022-10-16T16:42:20;6.15;;;1.80;;
74044;SDS011;62389;51.412;5.436;2022-10-16T16:44:47;5.10;;;2.40;;
74044;SDS011;62389;51.412;5.436;2022-10-16T16:47:12;5.90;;;1.38;;
74044;SDS011;62389;51.412;5.436;2022-10-16T16:49:38;2.92;;;1.20;;
74044;SDS011;62389;51.412;5.436;2022-10-16T16:52:03;4.18;;;1.40;;
74044;SDS011;62389;51.412;5.436;2022-10-16T16:54:29;4.72;;;1.63;;
74044;SDS011;62389;51.412;5.436;2022-10-16T16:56:54;5.32;;;1.30;;
74044;SDS011;62389;51.412;5.436;2022-10-16T16:59:20;5.18;;;2.17;;
74044;SDS011;62389;51.412;5.436;2022-10-16T17:01:46;6.10;;;1.27;;
74044;SDS011;62389;51.412;5.436;2022-10-16T17:04:12;5.75;;;1.70;;
74044;SDS011;62389;51.412;5.436;2022-10-16T17:06:40;5.18;;;1.80;;
74044;SDS011;62389;51.412;5.436;2022-10-16T17:09:06;4.68;;;1.80;;
74044;SDS011;62389;51.412;5.436;2022-10-16T17:11:32;5.38;;;1.70;;
74044;SDS011;62389;51.412;5.436;2022-10-16T17:13:59;4.53;;;1.70;;
74044;SDS011;62389;51.412;5.436;2022-10-16T17:16:30;3.10;;;1.52;;
74044;SDS011;62389;51.412;5.436;2022-10-16T17:19:01;7.68;;;2.00;;